Time;durP1;ratioP1;P1;durP2;ratioP2;P2;SDS_P1;SDS_P2;PMS_P1;PMS_P2;Temp;Humidity;BMP_temperature;BMP_pressure;BME280_temperature;BME280_humidity;BME280_pressure;Samples;Min_cycle;Max_cycle;Signal;HPM_P1;HPM_P2
2023/07/12 00:02:20;;;;;;;9.40;8.50;;;;;;;;;;5097650;28;20250;-62
2023/07/12 00:04:47;;;;;;;9.57;8.48;;;;;;;;;;5096823;28;20223;-62
2023/07/12 00:07:15;;;;;;;9.55;8.85;;;;;;;;;;5097344;28;20204;-62
2023/07/12 00:09:42;;;;;;;9.60;8.70;;;;;;;;;;5096938;28;20214;-62
2023/07/12 00:12:10;;;;;;;9.35;8.48;;;;;;;;;;5097662;28;20294;-62
2023/07/12 00:14:37;;;;;;;9.43;8.63;;;;;;;;;;5097429;28;20298;-62
2023/07/12 00:17:07;;;;;;;9.57;8.77;;;;;;;;;;5097350;28;20290;-62
2023/07/12 00:19:34;;;;;;;8.60;7.85;;;;;;;;;;5096301;28;20579;-62
2023/07/12 00:22:02;;;;;;;6.88;6.18;;;;;;;;;;5096724;28;20222;-62
2023/07/12 00:24:30;;;;;;;7.40;6.10;;;;;;;;;;5096926;28;20204;-62
2023/07/12 00:26:58;;;;;;;5.75;4.70;;;;;;;;;;5096456;28;20203;-62
2023/07/12 00:29:25;;;;;;;4.55;4.13;;;;;;;;;;5101114;28;20478;-62
2023/07/12 00:31:53;;;;;;;6.18;3.88;;;;;;;;;;5101233;28;20234;-62
2023/07/12 00:34:21;;;;;;;5.50;3.88;;;;;;;;;;5101483;28;20212;-62
2023/07/12 00:36:49;;;;;;;4.72;3.60;;;;;;;;;;5100938;28;20543;-62
2023/07/12 00:39:17;;;;;;;5.78;3.42;;;;;;;;;;5101046;28;20210;-62
2023/07/12 00:41:52;;;;;;;5.70;3.30;;;;;;;;;;5100826;28;20204;-62
2023/07/12 00:44:24;;;;;;;5.07;2.70;;;;;;;;;;5099807;28;20238;-62
2023/07/12 00:46:53;;;;;;;4.50;3.05;;;;;;;;;;5100554;28;20211;-62
2023/07/12 00:49:22;;;;;;;7.25;2.92;;;;;;;;;;5100819;28;20264;-62
2023/07/12 00:51:52;;;;;;;3.25;2.50;;;;;;;;;;5099773;28;20242;-62
2023/07/12 00:54:21;;;;;;;3.90;2.50;;;;;;;;;;5100155;28;20239;-62
2023/07/12 00:56:48;;;;;;;4.57;2.95;;;;;;;;;;5100431;28;20535;-62
2023/07/12 00:59:18;;;;;;;4.32;2.70;;;;;;;;;;5097496;28;20204;-62
2023/07/12 01:01:46;;;;;;;3.90;2.60;;;;;;;;;;5100634;28;20211;-62
2023/07/12 01:04:17;;;;;;;5.97;2.90;;;;;;;;;;5100313;28;20210;-62
2023/07/12 01:06:49;;;;;;;3.90;2.60;;;;;;;;;;5100083;28;20204;-62
2023/07/12 01:09:17;;;;;;;2.72;2.42;;;;;;;;;;5100832;28;20282;-63
2023/07/12 01:11:46;;;;;;;4.68;2.53;;;;;;;;;;5099776;28;20229;-62
2023/07/12 01:14:15;;;;;;;2.58;2.38;;;;;;;;;;5099970;28;20252;-62
2023/07/12 01:16:43;;;;;;;4.28;2.50;;;;;;;;;;5099620;28;20234;-62
2023/07/12 01:19:11;;;;;;;2.70;2.45;;;;;;;;;;5099577;28;20231;-62
2023/07/12 01:21:43;;;;;;;3.08;2.40;;;;;;;;;;5099977;28;20253;-62
2023/07/12 01:24:10;;;;;;;3.35;2.05;;;;;;;;;;5099806;28;20642;-62
2023/07/12 01:26:39;;;;;;;3.05;2.65;;;;;;;;;;5099926;28;20239;-62
2023/07/12 01:29:08;;;;;;;4.25;2.17;;;;;;;;;;5099525;28;20239;-62
2023/07/12 01:31:36;;;;;;;3.33;2.20;;;;;;;;;;5099941;28;20234;-66
2023/07/12 01:34:04;;;;;;;3.70;2.53;;;;;;;;;;5099678;28;20282;-62
2023/07/12 01:36:32;;;;;;;2.50;2.30;;;;;;;;;;5099646;28;20212;-62
2023/07/12 01:39:02;;;;;;;2.80;2.22;;;;;;;;;;5096200;28;20587;-62
2023/07/12 01:41:30;;;;;;;3.38;2.38;;;;;;;;;;5090144;28;20199;-62
2023/07/12 01:43:58;;;;;;;2.50;2.10;;;;;;;;;;5098836;28;20302;-62
2023/07/12 01:46:26;;;;;;;2.75;2.20;;;;;;;;;;5098651;28;20484;-62
2023/07/12 01:48:54;;;;;;;2.28;2.15;;;;;;;;;;5099182;28;20572;-63
2023/07/12 01:51:22;;;;;;;3.08;2.28;;;;;;;;;;5099429;28;20238;-62
2023/07/12 01:53:49;;;;;;;3.25;2.47;;;;;;;;;;5099047;28;20301;-62
2023/07/12 01:56:18;;;;;;;2.92;2.15;;;;;;;;;;5099244;28;20267;-62
2023/07/12 01:58:46;;;;;;;3.78;2.35;;;;;;;;;;5098861;28;20265;-62
2023/07/12 02:01:14;;;;;;;3.70;2.40;;;;;;;;;;5099411;28;20206;-62
2023/07/12 02:03:41;;;;;;;2.67;2.20;;;;;;;;;;5099289;28;20650;-62
2023/07/12 02:06:09;;;;;;;2.85;2.58;;;;;;;;;;5098642;28;20203;-62
2023/07/12 02:08:36;;;;;;;2.47;2.28;;;;;;;;;;5097052;28;20298;-62
2023/07/12 02:11:04;;;;;;;3.00;2.45;;;;;;;;;;5099180;28;20266;-62
2023/07/12 02:13:33;;;;;;;3.22;2.50;;;;;;;;;;5099347;28;20203;-62
2023/07/12 02:16:01;;;;;;;3.22;2.75;;;;;;;;;;5099247;28;20199;-62
2023/07/12 02:18:28;;;;;;;2.78;2.58;;;;;;;;;;5099033;28;20300;-62
2023/07/12 02:20:55;;;;;;;3.53;2.40;;;;;;;;;;5085588;28;20208;-62
2023/07/12 02:23:23;;;;;;;3.25;2.70;;;;;;;;;;5078799;28;20318;-62
2023/07/12 02:25:50;;;;;;;2.67;2.47;;;;;;;;;;5078383;28;20204;-62
2023/07/12 02:28:18;;;;;;;2.40;2.20;;;;;;;;;;5082658;28;20307;-62
2023/07/12 02:30:47;;;;;;;2.83;2.63;;;;;;;;;;5098982;28;20388;-62
2023/07/12 02:33:14;;;;;;;2.75;2.55;;;;;;;;;;5098425;28;20223;-62
2023/07/12 02:35:42;;;;;;;2.83;2.63;;;;;;;;;;5079549;28;20212;-62
2023/07/12 02:38:10;;;;;;;2.60;2.40;;;;;;;;;;5088481;28;20211;-62
2023/07/12 02:40:37;;;;;;;3.08;2.78;;;;;;;;;;5098691;28;20214;-62
2023/07/12 02:43:05;;;;;;;2.40;2.20;;;;;;;;;;5098274;28;20231;-62
2023/07/12 02:45:33;;;;;;;3.08;2.78;;;;;;;;;;5098501;28;20295;-62
2023/07/12 02:48:03;;;;;;;2.92;2.63;;;;;;;;;;5092852;28;20211;-62
2023/07/12 02:50:30;;;;;;;3.45;2.55;;;;;;;;;;5077787;28;20204;-62
2023/07/12 02:52:58;;;;;;;2.75;2.40;;;;;;;;;;5091881;28;20211;-62
2023/07/12 02:55:25;;;;;;;2.88;2.60;;;;;;;;;;5097773;28;20705;-62
2023/07/12 02:57:53;;;;;;;2.65;2.45;;;;;;;;;;5098256;28;20559;-62
2023/07/12 03:00:21;;;;;;;3.38;2.50;;;;;;;;;;5098231;28;20240;-62
2023/07/12 03:02:48;;;;;;;3.45;2.60;;;;;;;;;;5098278;28;20509;-62
2023/07/12 03:05:17;;;;;;;3.15;2.67;;;;;;;;;;5098159;28;20204;-63
2023/07/12 03:07:45;;;;;;;2.88;2.30;;;;;;;;;;5097925;28;20619;-62
2023/07/12 03:10:15;;;;;;;2.53;2.30;;;;;;;;;;5098125;28;20309;-62
2023/07/12 03:12:42;;;;;;;2.42;2.22;;;;;;;;;;5097931;28;20223;-62
2023/07/12 03:15:10;;;;;;;3.00;2.55;;;;;;;;;;5097992;28;20261;-62
2023/07/12 03:17:38;;;;;;;2.92;2.67;;;;;;;;;;5088557;28;20208;-62
2023/07/12 03:20:05;;;;;;;3.65;2.65;;;;;;;;;;5097872;28;20204;-62
2023/07/12 03:22:34;;;;;;;3.30;2.42;;;;;;;;;;5097520;28;20603;-62
2023/07/12 03:25:02;;;;;;;8.50;2.53;;;;;;;;;;5098126;28;20290;-62
2023/07/12 03:27:29;;;;;;;6.78;2.63;;;;;;;;;;5097785;28;20295;-62
2023/07/12 03:29:57;;;;;;;4.00;2.70;;;;;;;;;;5087728;28;20342;-62
2023/07/12 03:32:24;;;;;;;5.25;2.40;;;;;;;;;;5081936;28;20249;-62
2023/07/12 03:34:52;;;;;;;2.72;2.35;;;;;;;;;;5097824;28;20250;-62
2023/07/12 03:37:20;;;;;;;4.10;2.65;;;;;;;;;;5097170;28;20747;-62
2023/07/12 03:39:48;;;;;;;4.90;2.47;;;;;;;;;;5097692;28;20268;-62
2023/07/12 03:42:16;;;;;;;4.45;2.38;;;;;;;;;;5097631;28;20199;-62
2023/07/12 03:44:43;;;;;;;4.00;2.60;;;;;;;;;;5097471;28;20237;-62
2023/07/12 03:47:11;;;;;;;2.90;2.58;;;;;;;;;;5097296;28;20290;-62
2023/07/12 03:49:38;;;;;;;3.67;2.60;;;;;;;;;;5096952;28;20490;-62
2023/07/12 03:52:06;;;;;;;2.75;2.20;;;;;;;;;;5097463;28;20233;-62
2023/07/12 03:54:34;;;;;;;4.28;2.67;;;;;;;;;;5097033;28;20677;-62
2023/07/12 03:57:03;;;;;;;4.25;2.40;;;;;;;;;;5097608;28;20207;-62
2023/07/12 03:59:30;;;;;;;4.25;2.40;;;;;;;;;;5097140;28;20229;-62
2023/07/12 04:01:58;;;;;;;2.45;2.20;;;;;;;;;;5100319;28;20665;-62
2023/07/12 04:04:25;;;;;;;3.65;2.42;;;;;;;;;;5101053;28;20199;-62
2023/07/12 04:06:53;;;;;;;2.78;2.58;;;;;;;;;;5101374;28;20199;-62
2023/07/12 04:09:20;;;;;;;2.85;2.25;;;;;;;;;;5101060;28;20207;-62
2023/07/12 04:11:47;;;;;;;2.75;2.55;;;;;;;;;;5082935;28;20661;-62
2023/07/12 04:14:16;;;;;;;2.58;2.35;;;;;;;;;;5092874;28;20211;-62
2023/07/12 04:16:44;;;;;;;3.88;2.60;;;;;;;;;;5100417;28;20203;-62
2023/07/12 04:19:12;;;;;;;2.85;2.40;;;;;;;;;;5100494;28;20541;-62
2023/07/12 04:21:39;;;;;;;2.78;2.58;;;;;;;;;;5100764;28;20221;-62
2023/07/12 04:24:07;;;;;;;4.72;2.40;;;;;;;;;;5100362;28;20203;-62
2023/07/12 04:26:37;;;;;;;2.55;2.35;;;;;;;;;;5100422;28;20203;-62
2023/07/12 04:29:05;;;;;;;4.18;2.33;;;;;;;;;;5100534;28;20238;-62
2023/07/12 04:31:34;;;;;;;4.47;2.47;;;;;;;;;;5100528;28;20228;-62
2023/07/12 04:34:01;;;;;;;2.67;2.40;;;;;;;;;;5100294;28;20211;-62
2023/07/12 04:36:28;;;;;;;3.40;2.70;;;;;;;;;;5100447;28;20212;-62
2023/07/12 04:38:55;;;;;;;2.50;2.22;;;;;;;;;;5094216;28;20617;-62
2023/07/12 04:41:23;;;;;;;3.03;2.67;;;;;;;;;;5099998;28;20742;-62
2023/07/12 04:43:51;;;;;;;3.50;2.50;;;;;;;;;;5099296;28;20208;-62
2023/07/12 04:46:18;;;;;;;2.60;2.38;;;;;;;;;;5100052;28;20684;-62
2023/07/12 04:48:47;;;;;;;2.75;2.22;;;;;;;;;;5099847;28;20212;-62
2023/07/12 04:51:15;;;;;;;2.33;2.13;;;;;;;;;;5095447;28;20255;-62
2023/07/12 04:53:47;;;;;;;3.05;2.58;;;;;;;;;;5079652;28;20231;-62
2023/07/12 04:56:14;;;;;;;3.33;2.58;;;;;;;;;;5100024;28;20210;-62
2023/07/12 04:58:42;;;;;;;2.50;2.30;;;;;;;;;;5099278;28;20579;-62
2023/07/12 05:01:10;;;;;;;3.13;2.10;;;;;;;;;;5099622;28;20290;-62
2023/07/12 05:03:38;;;;;;;2.67;2.47;;;;;;;;;;5099777;28;20603;-62
2023/07/12 05:06:06;;;;;;;2.55;2.33;;;;;;;;;;5089071;28;20217;-62
2023/07/12 05:08:33;;;;;;;2.65;2.35;;;;;;;;;;5079524;28;20269;-62
2023/07/12 05:11:01;;;;;;;2.35;2.13;;;;;;;;;;5095973;28;20199;-62
2023/07/12 05:13:29;;;;;;;2.90;2.15;;;;;;;;;;5098773;28;20228;-62
2023/07/12 05:15:56;;;;;;;2.38;2.17;;;;;;;;;;5099114;28;20215;-62
2023/07/12 05:18:24;;;;;;;2.15;2.03;;;;;;;;;;5098904;28;20207;-62
2023/07/12 05:20:53;;;;;;;2.55;2.15;;;;;;;;;;5092034;28;20268;-62
2023/07/12 05:23:22;;;;;;;2.00;1.90;;;;;;;;;;5098875;28;20583;-62
2023/07/12 05:25:50;;;;;;;2.10;1.90;;;;;;;;;;5098685;28;20215;-62
2023/07/12 05:28:17;;;;;;;1.85;1.75;;;;;;;;;;5098796;28;20622;-62
2023/07/12 05:30:44;;;;;;;2.00;1.90;;;;;;;;;;5097984;28;20575;-62
2023/07/12 05:33:12;;;;;;;1.98;1.77;;;;;;;;;;5091289;28;20559;-62
2023/07/12 05:35:40;;;;;;;1.95;1.75;;;;;;;;;;5087834;28;20215;-62
2023/07/12 05:38:08;;;;;;;2.03;1.83;;;;;;;;;;5098517;28;20203;-62
2023/07/12 05:40:38;;;;;;;2.25;1.85;;;;;;;;;;5097595;28;20215;-62
2023/07/12 05:43:05;;;;;;;1.98;1.77;;;;;;;;;;5098247;28;20207;-62
2023/07/12 05:45:32;;;;;;;2.17;1.80;;;;;;;;;;5098495;28;20636;-62
2023/07/12 05:48:00;;;;;;;1.83;1.70;;;;;;;;;;5098414;28;20575;-62
2023/07/12 05:50:27;;;;;;;2.03;1.92;;;;;;;;;;5098119;28;20540;-62
2023/07/12 05:52:55;;;;;;;2.15;1.95;;;;;;;;;;5098566;28;20227;-62
2023/07/12 05:55:22;;;;;;;2.70;1.67;;;;;;;;;;5098254;28;20520;-62
2023/07/12 05:57:51;;;;;;;2.00;1.90;;;;;;;;;;5098252;28;20195;-62
2023/07/12 06:00:19;;;;;;;2.78;1.70;;;;;;;;;;5092989;28;20200;-62
2023/07/12 06:02:46;;;;;;;2.90;1.48;;;;;;;;;;5097920;28;20579;-62
2023/07/12 06:05:13;;;;;;;1.70;1.60;;;;;;;;;;5097512;28;20203;-62
2023/07/12 06:07:41;;;;;;;1.90;1.50;;;;;;;;;;5097599;28;20239;-62
2023/07/12 06:10:09;;;;;;;1.88;1.65;;;;;;;;;;5096643;28;20236;-62
2023/07/12 06:12:36;;;;;;;1.80;1.70;;;;;;;;;;5097338;28;20235;-62
2023/07/12 06:15:05;;;;;;;1.80;1.70;;;;;;;;;;5084720;28;20483;-62
2023/07/12 06:17:33;;;;;;;2.15;1.65;;;;;;;;;;5095404;28;20204;-62
2023/07/12 06:20:01;;;;;;;2.42;1.80;;;;;;;;;;5097881;28;20211;-62
2023/07/12 06:22:28;;;;;;;2.22;1.60;;;;;;;;;;5097126;28;20223;-62
2023/07/12 06:24:56;;;;;;;2.03;1.75;;;;;;;;;;5096531;28;20265;-62
2023/07/12 06:27:23;;;;;;;1.80;1.70;;;;;;;;;;5092782;28;20205;-62
2023/07/12 06:29:51;;;;;;;2.35;1.60;;;;;;;;;;5076386;28;20208;-62
2023/07/12 06:32:19;;;;;;;2.33;1.80;;;;;;;;;;5089591;28;20242;-62
2023/07/12 06:34:47;;;;;;;1.75;1.65;;;;;;;;;;5096753;28;20219;-62
2023/07/12 06:37:14;;;;;;;2.28;2.08;;;;;;;;;;5096878;28;20204;-62
2023/07/12 06:39:42;;;;;;;1.80;1.70;;;;;;;;;;5096457;28;20487;-62
2023/07/12 06:42:09;;;;;;;2.13;1.92;;;;;;;;;;5097018;28;20631;-62
2023/07/12 06:44:37;;;;;;;2.10;1.90;;;;;;;;;;5096930;28;20206;-62
2023/07/12 06:47:04;;;;;;;2.15;1.70;;;;;;;;;;5096280;28;20226;-62
2023/07/12 06:49:33;;;;;;;2.10;1.80;;;;;;;;;;5096304;28;20486;-62
2023/07/12 06:52:02;;;;;;;2.00;1.90;;;;;;;;;;5096920;28;20649;-62
2023/07/12 06:54:29;;;;;;;2.00;1.80;;;;;;;;;;5096520;28;20232;-62
2023/07/12 06:56:57;;;;;;;2.08;1.88;;;;;;;;;;5095860;28;20204;-62
2023/07/12 06:59:25;;;;;;;2.00;1.80;;;;;;;;;;5096519;28;20236;-62
2023/07/12 07:01:53;;;;;;;1.95;1.75;;;;;;;;;;5096904;28;20203;-62
2023/07/12 07:04:20;;;;;;;5.78;1.75;;;;;;;;;;5096210;28;20211;-62
2023/07/12 07:06:49;;;;;;;1.75;1.65;;;;;;;;;;5095904;28;20199;-62
2023/07/12 07:09:16;;;;;;;2.40;1.90;;;;;;;;;;5083605;28;20196;-62
2023/07/12 07:11:44;;;;;;;2.53;1.92;;;;;;;;;;5076596;28;20200;-62
2023/07/12 07:14:11;;;;;;;2.10;1.85;;;;;;;;;;5096689;28;20231;-62
2023/07/12 07:16:39;;;;;;;2.92;1.95;;;;;;;;;;5096733;28;20292;-62
2023/07/12 07:19:06;;;;;;;2.20;2.00;;;;;;;;;;5096039;28;20199;-62
2023/07/12 07:21:34;;;;;;;2.63;2.30;;;;;;;;;;5093644;28;20207;-63
2023/07/12 07:24:02;;;;;;;4.15;2.72;;;;;;;;;;5093828;28;20206;-62
2023/07/12 07:26:30;;;;;;;2.95;2.50;;;;;;;;;;5095993;28;20216;-62
2023/07/12 07:28:57;;;;;;;3.72;2.90;;;;;;;;;;5094811;28;20572;-62
2023/07/12 07:31:25;;;;;;;2.88;2.50;;;;;;;;;;5095335;28;20599;-62
2023/07/12 07:33:52;;;;;;;3.40;2.85;;;;;;;;;;5095277;28;20230;-62
2023/07/12 07:36:19;;;;;;;3.85;2.78;;;;;;;;;;5082115;28;20208;-62
2023/07/12 07:38:47;;;;;;;3.75;2.80;;;;;;;;;;5088778;28;20204;-62
2023/07/12 07:41:16;;;;;;;3.28;2.97;;;;;;;;;;5095477;28;20200;-62
2023/07/12 07:43:44;;;;;;;3.38;2.70;;;;;;;;;;5094148;28;20199;-62
2023/07/12 07:46:15;;;;;;;3.10;2.80;;;;;;;;;;5095856;28;20215;-62
2023/07/12 07:48:42;;;;;;;4.13;2.85;;;;;;;;;;5093909;28;20207;-62
2023/07/12 07:51:09;;;;;;;3.53;3.03;;;;;;;;;;5094771;28;20203;-62
2023/07/12 07:53:37;;;;;;;3.47;2.88;;;;;;;;;;5095062;28;20230;-62
2023/07/12 07:56:05;;;;;;;3.17;2.88;;;;;;;;;;5095283;28;20204;-62
2023/07/12 07:58:34;;;;;;;3.13;2.83;;;;;;;;;;5094987;28;20199;-62
2023/07/12 08:01:01;;;;;;;4.05;3.28;;;;;;;;;;5095869;28;20211;-62
2023/07/12 08:03:28;;;;;;;2.80;2.60;;;;;;;;;;5087577;28;20239;-62
2023/07/12 08:06:01;;;;;;;3.53;3.20;;;;;;;;;;5094312;28;20211;-63
2023/07/12 08:08:29;;;;;;;4.10;2.97;;;;;;;;;;5095669;28;20203;-62
2023/07/12 08:10:58;;;;;;;3.85;3.55;;;;;;;;;;5095772;28;20239;-62
2023/07/12 08:13:25;;;;;;;4.47;4.07;;;;;;;;;;5094924;28;20629;-62
2023/07/12 08:15:56;;;;;;;5.28;4.43;;;;;;;;;;5090133;28;20603;-62
2023/07/12 08:18:23;;;;;;;4.93;4.40;;;;;;;;;;5077313;28;20204;-62
2023/07/12 08:20:53;;;;;;;5.00;4.53;;;;;;;;;;5094785;28;20199;-62
2023/07/12 08:23:20;;;;;;;5.18;4.53;;;;;;;;;;5094391;28;20198;-62
2023/07/12 08:25:50;;;;;;;4.88;4.50;;;;;;;;;;5095385;28;20200;-62
2023/07/12 08:28:17;;;;;;;5.07;4.53;;;;;;;;;;5095249;28;20199;-62
2023/07/12 08:30:44;;;;;;;4.55;4.03;;;;;;;;;;5093282;28;20203;-62
2023/07/12 08:33:13;;;;;;;4.75;4.35;;;;;;;;;;5094875;28;20239;-62
2023/07/12 08:35:40;;;;;;;4.90;4.40;;;;;;;;;;5094679;28;20204;-62
2023/07/12 08:38:08;;;;;;;4.80;4.40;;;;;;;;;;5095329;28;20636;-62
2023/07/12 08:40:37;;;;;;;4.63;4.20;;;;;;;;;;5094430;28;20215;-62
2023/07/12 08:43:09;;;;;;;5.20;4.60;;;;;;;;;;5086471;28;20595;-62
2023/07/12 08:45:36;;;;;;;4.95;4.55;;;;;;;;;;5090480;28;20328;-63
2023/07/12 08:48:05;;;;;;;5.82;4.50;;;;;;;;;;5097702;28;20211;-62
2023/07/12 08:50:40;;;;;;;4.85;4.45;;;;;;;;;;5098021;28;20200;-62
2023/07/12 08:53:10;;;;;;;5.10;4.60;;;;;;;;;;5098949;28;20233;-62
2023/07/12 08:55:38;;;;;;;4.80;4.40;;;;;;;;;;5097819;28;20530;-62
2023/07/12 08:58:18;;;;;;;4.53;4.13;;;;;;;;;;5098651;28;20239;-62
2023/07/12 09:00:46;;;;;;;5.78;5.20;;;;;;;;;;5098153;28;20204;-62
2023/07/12 09:03:13;;;;;;;6.00;5.32;;;;;;;;;;5098780;28;20207;-62
2023/07/12 09:05:42;;;;;;;5.38;4.70;;;;;;;;;;5098128;28;20207;-62
2023/07/12 09:08:17;;;;;;;5.70;5.20;;;;;;;;;;5097829;28;20195;-62
2023/07/12 09:10:47;;;;;;;5.70;5.20;;;;;;;;;;5098138;28;20210;-62
2023/07/12 09:13:15;;;;;;;8.40;5.40;;;;;;;;;;5097947;28;20234;-62
2023/07/12 09:15:45;;;;;;;6.13;5.57;;;;;;;;;;5097710;28;20231;-62
2023/07/12 09:18:24;;;;;;;6.18;5.57;;;;;;;;;;5097531;28;20276;-62
2023/07/12 09:20:54;;;;;;;5.95;5.35;;;;;;;;;;5096099;28;20448;-62
2023/07/12 09:23:23;;;;;;;6.32;5.70;;;;;;;;;;5097282;28;20196;-62
2023/07/12 09:25:55;;;;;;;6.85;5.60;;;;;;;;;;5097421;28;20294;-62
2023/07/12 09:28:22;;;;;;;6.47;5.72;;;;;;;;;;5097334;28;20211;-62
2023/07/12 09:30:51;;;;;;;6.72;5.70;;;;;;;;;;5096993;28;20269;-62
2023/07/12 09:33:21;;;;;;;6.28;5.68;;;;;;;;;;5097354;28;20681;-62
2023/07/12 09:35:49;;;;;;;6.10;5.50;;;;;;;;;;5097116;28;20211;-63
2023/07/12 09:38:19;;;;;;;7.07;5.72;;;;;;;;;;5096684;28;20204;-62
2023/07/12 09:40:48;;;;;;;6.55;5.82;;;;;;;;;;5096531;28;20294;-62
2023/07/12 09:43:16;;;;;;;6.20;5.60;;;;;;;;;;5097208;28;20207;-62
2023/07/12 09:45:45;;;;;;;6.22;5.63;;;;;;;;;;5096835;28;20252;-62
2023/07/12 09:48:22;;;;;;;6.47;5.53;;;;;;;;;;5096916;28;20227;-62
2023/07/12 09:50:52;;;;;;;6.40;5.55;;;;;;;;;;5096271;28;20207;-62
2023/07/12 09:53:26;;;;;;;7.20;5.45;;;;;;;;;;5096514;28;20232;-62
2023/07/12 09:55:56;;;;;;;5.70;5.25;;;;;;;;;;5096132;28;20226;-62
2023/07/12 09:58:26;;;;;;;5.82;5.30;;;;;;;;;;5096657;28;20454;-62
2023/07/12 10:00:56;;;;;;;6.05;5.40;;;;;;;;;;5096762;28;20610;-63
2023/07/12 10:03:25;;;;;;;5.88;5.28;;;;;;;;;;5096842;28;20291;-62
2023/07/12 10:05:56;;;;;;;6.05;5.38;;;;;;;;;;5096563;28;20210;-62
2023/07/12 10:08:27;;;;;;;5.80;5.20;;;;;;;;;;5097065;28;20221;-62
2023/07/12 10:10:58;;;;;;;6.32;5.63;;;;;;;;;;5096828;28;20214;-62
2023/07/12 10:13:32;;;;;;;7.22;5.50;;;;;;;;;;5096291;28;20526;-63
2023/07/12 10:16:01;;;;;;;5.80;5.30;;;;;;;;;;5095370;28;20295;-62
2023/07/12 10:18:30;;;;;;;6.28;5.78;;;;;;;;;;5096120;28;20625;-62
2023/07/12 10:20:58;;;;;;;5.68;5.25;;;;;;;;;;5096871;28;20212;-63
2023/07/12 10:23:29;;;;;;;6.07;5.53;;;;;;;;;;5096733;28;20720;-62
2023/07/12 10:25:57;;;;;;;5.97;5.47;;;;;;;;;;5095457;28;20204;-62
2023/07/12 10:28:28;;;;;;;6.38;5.70;;;;;;;;;;5096152;28;20215;-63
2023/07/12 10:30:57;;;;;;;5.90;5.35;;;;;;;;;;5097035;28;20218;-62
2023/07/12 10:33:25;;;;;;;6.10;5.50;;;;;;;;;;5096169;28;20220;-62
2023/07/12 10:35:54;;;;;;;6.55;5.95;;;;;;;;;;5096450;28;20211;-62
2023/07/12 10:38:22;;;;;;;5.90;5.40;;;;;;;;;;5095659;28;20210;-62
2023/07/12 10:40:53;;;;;;;6.78;6.07;;;;;;;;;;5096328;28;20238;-62
2023/07/12 10:43:23;;;;;;;6.50;5.90;;;;;;;;;;5097153;28;20206;-62
2023/07/12 10:45:51;;;;;;;6.20;5.60;;;;;;;;;;5096569;28;20214;-64
2023/07/12 10:48:22;;;;;;;5.90;5.32;;;;;;;;;;5095826;28;20435;-62
2023/07/12 10:50:50;;;;;;;6.10;5.60;;;;;;;;;;5096228;28;20231;-62
2023/07/12 10:53:21;;;;;;;7.57;5.57;;;;;;;;;;5095825;28;20226;-62
2023/07/12 10:56:07;;;;;;;6.25;5.65;;;;;;;;;;5096168;28;20219;-62
2023/07/12 10:58:46;;;;;;;6.15;5.55;;;;;;;;;;5096269;28;20207;-62
2023/07/12 11:01:36;;;;;;;5.88;5.38;;;;;;;;;;5094797;28;20199;-62
2023/07/12 11:04:07;;;;;;;6.40;5.90;;;;;;;;;;5095086;28;20211;-62
2023/07/12 11:06:35;;;;;;;5.60;5.20;;;;;;;;;;5095894;28;20231;-62
2023/07/12 11:09:08;;;;;;;6.20;5.68;;;;;;;;;;5095502;28;20204;-62
2023/07/12 11:11:43;;;;;;;5.53;5.03;;;;;;;;;;5094842;28;20292;-62
2023/07/12 11:14:16;;;;;;;5.80;5.30;;;;;;;;;;5095370;28;20280;-62
2023/07/12 11:16:49;;;;;;;6.32;5.57;;;;;;;;;;5095328;28;20214;-62
2023/07/12 11:19:35;;;;;;;5.97;5.40;;;;;;;;;;5095632;28;20227;-62
2023/07/12 11:22:04;;;;;;;5.65;5.13;;;;;;;;;;5095031;28;20200;-62
2023/07/12 11:24:32;;;;;;;5.65;5.20;;;;;;;;;;5095379;28;20195;-63
2023/07/12 11:27:02;;;;;;;5.60;5.10;;;;;;;;;;5095031;28;20203;-62
2023/07/12 11:29:31;;;;;;;5.53;5.03;;;;;;;;;;5095433;28;20207;-62
2023/07/12 11:32:04;;;;;;;5.28;4.88;;;;;;;;;;5095483;28;20203;-62
2023/07/12 11:34:33;;;;;;;6.35;5.85;;;;;;;;;;5095148;28;20228;-62
2023/07/12 11:37:02;;;;;;;5.63;5.22;;;;;;;;;;5094308;28;20591;-62
2023/07/12 11:39:29;;;;;;;5.50;5.10;;;;;;;;;;5096067;28;20210;-62
2023/07/12 11:41:57;;;;;;;5.55;5.00;;;;;;;;;;5095740;28;20222;-62
2023/07/12 11:44:26;;;;;;;5.05;4.55;;;;;;;;;;5096074;28;20221;-62
2023/07/12 11:46:54;;;;;;;5.07;4.68;;;;;;;;;;5095588;28;20204;-62
2023/07/12 11:49:24;;;;;;;5.13;4.65;;;;;;;;;;5095166;28;20210;-62
2023/07/12 11:51:54;;;;;;;5.22;4.82;;;;;;;;;;5094838;28;20200;-62
2023/07/12 11:54:23;;;;;;;5.05;4.63;;;;;;;;;;5094850;28;20239;-62
2023/07/12 11:56:51;;;;;;;5.38;4.22;;;;;;;;;;5095502;28;20196;-62
2023/07/12 11:59:20;;;;;;;5.78;4.70;;;;;;;;;;5095415;28;20203;-62
2023/07/12 12:01:50;;;;;;;5.07;4.60;;;;;;;;;;5094889;28;20204;-62
2023/07/12 12:04:20;;;;;;;5.43;4.70;;;;;;;;;;5094895;28;20211;-62
2023/07/12 12:06:48;;;;;;;5.40;4.20;;;;;;;;;;5094884;28;20204;-62
2023/07/12 12:09:15;;;;;;;4.82;4.32;;;;;;;;;;5094451;28;20199;-62
2023/07/12 12:11:43;;;;;;;4.50;4.05;;;;;;;;;;5094973;28;20502;-62
2023/07/12 12:14:17;;;;;;;4.55;4.03;;;;;;;;;;5094428;28;20642;-62
2023/07/12 12:16:49;;;;;;;4.68;4.10;;;;;;;;;;5094838;28;20194;-62
2023/07/12 12:19:19;;;;;;;5.25;4.40;;;;;;;;;;5094808;28;20215;-62
2023/07/12 12:21:50;;;;;;;4.78;4.35;;;;;;;;;;5095352;28;20213;-62
2023/07/12 12:24:18;;;;;;;4.32;3.92;;;;;;;;;;5097970;28;20211;-62
2023/07/12 12:26:47;;;;;;;5.07;4.05;;;;;;;;;;5098621;28;20214;-62
2023/07/12 12:29:17;;;;;;;4.40;4.05;;;;;;;;;;5098866;28;20203;-62
2023/07/12 12:31:52;;;;;;;4.15;3.72;;;;;;;;;;5097895;28;20211;-63
2023/07/12 12:34:21;;;;;;;4.65;4.18;;;;;;;;;;5097847;28;20230;-62
2023/07/12 12:36:59;;;;;;;4.72;3.90;;;;;;;;;;5097130;28;20226;-62
2023/07/12 12:39:26;;;;;;;4.20;3.90;;;;;;;;;;5098347;28;20206;-62
2023/07/12 12:41:55;;;;;;;4.50;4.13;;;;;;;;;;5097782;28;20222;-63
2023/07/12 12:44:23;;;;;;;4.60;4.20;;;;;;;;;;5098008;28;20617;-62
2023/07/12 12:46:52;;;;;;;4.15;3.85;;;;;;;;;;5098164;28;20199;-62
2023/07/12 12:49:20;;;;;;;4.40;4.00;;;;;;;;;;5098275;28;20598;-63
2023/07/12 12:51:51;;;;;;;4.65;4.25;;;;;;;;;;5098836;28;20203;-62
2023/07/12 12:54:19;;;;;;;4.10;3.80;;;;;;;;;;5097894;28;20716;-62
2023/07/12 12:56:46;;;;;;;4.88;4.20;;;;;;;;;;5097417;28;20196;-62
2023/07/12 12:59:14;;;;;;;5.03;4.25;;;;;;;;;;5098436;28;20203;-62
2023/07/12 13:01:41;;;;;;;4.40;4.10;;;;;;;;;;5098051;28;20200;-62
2023/07/12 13:04:09;;;;;;;4.18;3.88;;;;;;;;;;5097809;28;20249;-62
2023/07/12 13:06:36;;;;;;;4.25;3.85;;;;;;;;;;5098380;28;20223;-63
2023/07/12 13:09:07;;;;;;;3.80;3.50;;;;;;;;;;5097559;28;20202;-62
2023/07/12 13:11:34;;;;;;;3.58;3.28;;;;;;;;;;5096946;28;20512;-63
2023/07/12 13:14:02;;;;;;;3.92;3.30;;;;;;;;;;5096604;28;20706;-62
2023/07/12 13:16:29;;;;;;;3.20;3.00;;;;;;;;;;5097182;28;20203;-62
2023/07/12 13:18:56;;;;;;;3.80;3.10;;;;;;;;;;5096807;28;20211;-62
2023/07/12 13:21:25;;;;;;;2.97;2.75;;;;;;;;;;5096692;28;20211;-62
2023/07/12 13:23:53;;;;;;;3.40;2.88;;;;;;;;;;5097387;28;20590;-62
2023/07/12 13:26:23;;;;;;;4.10;3.00;;;;;;;;;;5096573;28;20883;-62
2023/07/12 13:28:50;;;;;;;3.00;2.80;;;;;;;;;;5097033;28;20204;-63
2023/07/12 13:31:19;;;;;;;3.53;2.90;;;;;;;;;;5097030;28;20215;-62
2023/07/12 13:33:46;;;;;;;3.80;3.00;;;;;;;;;;5097049;28;20805;-62
2023/07/12 13:36:26;;;;;;;3.28;2.80;;;;;;;;;;5097125;28;20231;-62
2023/07/12 13:38:53;;;;;;;3.30;3.00;;;;;;;;;;5097236;28;20307;-62
2023/07/12 13:41:22;;;;;;;3.63;2.63;;;;;;;;;;5096936;28;20211;-62
2023/07/12 13:43:53;;;;;;;3.00;2.70;;;;;;;;;;5096041;28;20199;-63
2023/07/12 13:46:20;;;;;;;3.17;2.88;;;;;;;;;;5097015;28;20671;-62
2023/07/12 13:48:48;;;;;;;2.95;2.75;;;;;;;;;;5096704;28;20610;-62
2023/07/12 13:51:22;;;;;;;3.28;2.97;;;;;;;;;;5096358;28;20547;-62
2023/07/12 13:53:49;;;;;;;2.78;2.35;;;;;;;;;;5097023;28;20239;-62
2023/07/12 13:56:17;;;;;;;3.00;2.80;;;;;;;;;;5096453;28;20518;-63
2023/07/12 13:58:45;;;;;;;2.90;2.70;;;;;;;;;;5097166;28;20200;-62
2023/07/12 14:01:14;;;;;;;3.00;2.80;;;;;;;;;;5097370;28;20598;-62
2023/07/12 14:03:42;;;;;;;3.20;2.90;;;;;;;;;;5096536;28;20203;-62
2023/07/12 14:06:11;;;;;;;2.92;2.63;;;;;;;;;;5095737;28;20608;-62
2023/07/12 14:08:39;;;;;;;2.97;2.65;;;;;;;;;;5096493;28;20234;-62
2023/07/12 14:11:07;;;;;;;3.13;2.75;;;;;;;;;;5096849;28;20289;-63
2023/07/12 14:13:35;;;;;;;2.92;2.72;;;;;;;;;;5096333;28;20219;-63
2023/07/12 14:16:03;;;;;;;2.92;2.72;;;;;;;;;;5096360;28;20227;-62
2023/07/12 14:18:31;;;;;;;3.10;2.80;;;;;;;;;;5096246;28;20203;-62
2023/07/12 14:20:58;;;;;;;2.97;2.72;;;;;;;;;;5096245;28;20605;-62
2023/07/12 14:23:26;;;;;;;3.08;2.85;;;;;;;;;;5096532;28;20195;-62
2023/07/12 14:25:53;;;;;;;3.25;2.95;;;;;;;;;;5095545;28;20206;-62
2023/07/12 14:28:20;;;;;;;2.92;2.72;;;;;;;;;;5095706;28;20286;-62
2023/07/12 14:30:48;;;;;;;4.10;2.72;;;;;;;;;;5095544;28;20261;-63
2023/07/12 14:33:30;;;;;;;2.80;2.60;;;;;;;;;;5096166;28;20606;-63
2023/07/12 14:35:58;;;;;;;2.78;2.58;;;;;;;;;;5095199;28;20261;-62
2023/07/12 14:38:25;;;;;;;2.83;2.63;;;;;;;;;;5096215;28;20211;-63
2023/07/12 14:40:52;;;;;;;3.35;3.05;;;;;;;;;;5095788;28;20196;-62
2023/07/12 14:43:20;;;;;;;3.10;2.88;;;;;;;;;;5096160;28;20200;-62
2023/07/12 14:45:49;;;;;;;2.90;2.70;;;;;;;;;;5094815;28;20703;-63
2023/07/12 14:48:16;;;;;;;3.35;2.58;;;;;;;;;;5095724;28;20294;-63
2023/07/12 14:50:46;;;;;;;2.88;2.67;;;;;;;;;;5094764;28;20535;-63
2023/07/12 14:53:14;;;;;;;3.88;2.70;;;;;;;;;;5095478;28;20218;-63